Time;durP1;ratioP1;P1;durP2;ratioP2;P2;SDS_P1;SDS_P2;PMS_P1;PMS_P2;Temp;Humidity;BMP_temperature;BMP_pressure;BME280_temperature;BME280_humidity;BME280_pressure;Samples;Min_cycle;Max_cycle;Signal;HPM_P1;HPM_P2
2023/08/01 00:00:07;;;;;;;2.28;2.00;;;;;;;15.79;100.00;99847.31;5054045;28;20032;-83
2023/08/01 00:02:32;;;;;;;2.33;2.13;;;;;;;15.72;100.00;99834.53;5056256;28;20033;-83
2023/08/01 00:04:58;;;;;;;1.70;1.60;;;;;;;15.69;100.00;99820.78;5054747;28;20058;-83
2023/08/01 00:07:25;;;;;;;3.40;2.63;;;;;;;15.70;100.00;99809.41;5054778;28;20032;-83
2023/08/01 00:09:50;;;;;;;2.78;2.22;;;;;;;15.71;100.00;99817.16;5055735;28;20031;-83
2023/08/01 00:12:16;;;;;;;2.27;2.00;;;;;;;15.70;100.00;99812.88;5055294;28;20029;-82
2023/08/01 00:14:41;;;;;;;1.93;1.73;;;;;;;15.69;100.00;99815.56;5055702;28;20040;-82
2023/08/01 00:17:06;;;;;;;2.13;1.93;;;;;;;15.69;100.00;99813.81;5055614;28;20045;-83
2023/08/01 00:19:32;;;;;;;1.70;1.60;;;;;;;15.67;100.00;99799.94;5055660;28;20025;-83
2023/08/01 00:21:57;;;;;;;1.60;1.50;;;;;;;15.66;100.00;99803.50;5055984;28;20041;-83
2023/08/01 00:24:22;;;;;;;1.77;1.67;;;;;;;15.65;100.00;99812.25;5055819;28;20087;-83
2023/08/01 00:26:48;;;;;;;1.30;1.20;;;;;;;15.64;100.00;99813.19;5055261;28;20048;-83
2023/08/01 00:29:15;;;;;;;1.47;1.37;;;;;;;15.63;100.00;99813.28;5053894;28;20070;-83
2023/08/01 00:31:41;;;;;;;1.55;1.45;;;;;;;15.63;100.00;99818.50;5054398;28;20029;-83
2023/08/01 00:34:07;;;;;;;1.63;1.52;;;;;;;15.60;100.00;99809.03;5054318;28;20068;-82
2023/08/01 00:36:36;;;;;;;1.90;1.57;;;;;;;15.53;100.00;99795.47;5054823;28;20029;-83
2023/08/01 00:39:01;;;;;;;1.23;1.13;;;;;;;15.59;100.00;99797.75;5054657;28;20373;-83
2023/08/01 00:41:26;;;;;;;1.37;1.27;;;;;;;15.57;100.00;99798.75;5053924;28;20036;-83
2023/08/01 00:43:52;;;;;;;1.03;1.00;;;;;;;15.57;100.00;99796.97;5055198;28;20032;-82
2023/08/01 00:46:24;;;;;;;2.40;1.90;;;;;;;15.55;100.00;99798.81;5057810;28;20028;-82
2023/08/01 00:48:49;;;;;;;1.85;1.55;;;;;;;15.56;100.00;99797.06;5057790;28;20481;-83
2023/08/01 00:51:17;;;;;;;1.60;1.50;;;;;;;15.53;100.00;99798.06;5058106;28;20033;-83
2023/08/01 00:53:45;;;;;;;1.60;1.50;;;;;;;15.52;100.00;99796.38;5058431;28;20032;-83
2023/08/01 00:56:11;;;;;;;1.40;1.30;;;;;;;15.50;100.00;99793.00;5057576;28;20048;-83
2023/08/01 00:58:36;;;;;;;1.50;1.40;;;;;;;15.47;100.00;99797.56;5057291;28;20079;-83
2023/08/01 01:01:03;;;;;;;2.13;1.80;;;;;;;15.43;100.00;99796.84;5057805;28;20027;-82
2023/08/01 01:03:29;;;;;;;2.72;2.38;;;;;;;15.43;100.00;99802.94;5058573;28;20029;-83
2023/08/01 01:06:10;;;;;;;2.40;2.20;;;;;;;15.42;100.00;99805.63;5057925;28;20074;-82
2023/08/01 01:08:35;;;;;;;2.05;1.90;;;;;;;15.38;100.00;99802.31;5057298;28;20086;-83
2023/08/01 01:11:04;;;;;;;2.60;2.00;;;;;;;15.37;100.00;99791.94;5057188;28;20037;-83
2023/08/01 01:13:29;;;;;;;2.28;2.08;;;;;;;15.35;100.00;99791.19;5056434;28;20469;-83
2023/08/01 01:15:58;;;;;;;3.33;2.50;;;;;;;15.34;100.00;99794.72;5054843;28;20119;-83
2023/08/01 01:18:23;;;;;;;3.03;2.20;;;;;;;15.31;100.00;99787.06;5055589;28;20040;-82
2023/08/01 01:20:56;;;;;;;2.20;1.87;;;;;;;15.33;100.00;99791.28;5055517;28;20033;-83
2023/08/01 01:23:25;;;;;;;2.22;2.03;;;;;;;15.31;100.00;99789.66;5054992;28;20025;-82
2023/08/01 01:25:51;;;;;;;2.60;1.98;;;;;;;15.31;100.00;99792.28;5055804;28;20053;-83
2023/08/01 01:28:18;;;;;;;1.63;1.52;;;;;;;15.29;100.00;99792.34;5055236;28;20055;-83
2023/08/01 01:30:49;;;;;;;2.35;1.98;;;;;;;15.27;100.00;99792.44;5054894;28;20036;-83
2023/08/01 01:33:15;;;;;;;3.40;2.40;;;;;;;15.23;100.00;99792.66;5055773;28;20036;-82
2023/08/01 01:35:44;;;;;;;;;;;;;;;15.20;100.00;99792.81;5055182;28;20036;-82
2023/08/01 01:38:09;;;;;;;3.20;2.58;;;;;;;15.14;100.00;99784.34;5054834;28;19974;-83
2023/08/01 01:40:35;;;;;;;3.53;2.17;;;;;;;15.10;100.00;99781.97;5055239;28;20033;-82
2023/08/01 01:43:01;;;;;;;3.43;2.20;;;;;;;15.10;100.00;99790.69;5054840;28;20366;-83
2023/08/01 01:45:27;;;;;;;2.40;2.20;;;;;;;15.08;100.00;99791.69;5054085;28;20029;-83
2023/08/01 01:47:52;;;;;;;2.73;2.20;;;;;;;15.07;100.00;99790.00;5054670;28;20401;-82
2023/08/01 01:50:18;;;;;;;2.63;2.10;;;;;;;15.05;100.00;99781.38;5053427;28;20055;-82
2023/08/01 01:52:44;;;;;;;3.70;2.40;;;;;;;15.04;100.00;99788.38;5054690;28;20025;-82
2023/08/01 01:55:09;;;;;;;5.63;2.70;;;;;;;15.01;100.00;99775.47;5055121;28;20028;-82
2023/08/01 01:57:36;;;;;;;2.93;2.47;;;;;;;15.01;100.00;99785.94;5054361;28;20159;-83
2023/08/01 02:00:03;;;;;;;3.38;2.42;;;;;;;14.98;100.00;99786.91;5054659;28;20393;-83
2023/08/01 02:02:29;;;;;;;6.75;3.25;;;;;;;14.91;100.00;99779.50;5055008;28;20029;-83
2023/08/01 02:04:54;;;;;;;4.10;2.80;;;;;;;14.89;100.00;99776.94;5053996;28;20435;-83
2023/08/01 02:07:19;;;;;;;2.97;2.40;;;;;;;14.90;100.00;99786.47;5054261;28;20366;-83
2023/08/01 02:09:46;;;;;;;3.33;2.53;;;;;;;14.87;100.00;99776.16;5054300;28;20056;-82
2023/08/01 02:12:13;;;;;;;3.72;2.55;;;;;;;14.82;100.00;99768.56;5053248;28;20040;-82
2023/08/01 02:14:39;;;;;;;4.68;2.67;;;;;;;14.79;100.00;99775.72;5054480;28;20057;-82
2023/08/01 02:17:04;;;;;;;6.70;3.20;;;;;;;14.74;100.00;99773.31;5053425;28;20069;-82
2023/08/01 02:19:30;;;;;;;4.10;2.80;;;;;;;14.73;100.00;99778.63;5053502;28;20061;-83
2023/08/01 02:21:55;;;;;;;5.00;2.90;;;;;;;14.70;100.00;99773.56;5053666;28;20028;-82
2023/08/01 02:24:20;;;;;;;4.97;3.00;;;;;;;14.64;100.00;99774.69;5053747;28;20025;-82
2023/08/01 02:26:46;;;;;;;6.73;3.07;;;;;;;14.62;100.00;99773.91;5053703;28;20032;-82
2023/08/01 02:29:11;;;;;;;3.67;2.63;;;;;;;14.62;100.00;99779.13;5053486;28;20120;-82
2023/08/01 02:31:36;;;;;;;4.87;2.70;;;;;;;14.60;100.00;99779.22;5054218;28;20075;-82
2023/08/01 02:34:02;;;;;;;5.40;3.20;;;;;;;14.56;100.00;99777.66;5053532;28;20107;-83
2023/08/01 02:36:27;;;;;;;4.10;3.17;;;;;;;14.55;100.00;99782.97;5053727;28;20025;-82
2023/08/01 02:38:52;;;;;;;6.80;3.47;;;;;;;14.52;100.00;99779.56;5054131;28;20025;-82
2023/08/01 02:41:18;;;;;;;6.77;3.87;;;;;;;14.53;100.00;99785.63;5053012;28;20028;-82
2023/08/01 02:43:43;;;;;;;9.23;4.33;;;;;;;14.50;100.00;99791.03;5053843;28;20389;-83
2023/08/01 02:46:08;;;;;;;6.27;3.80;;;;;;;14.44;100.00;99780.84;5053820;28;20071;-83
2023/08/01 02:48:35;;;;;;;5.43;3.37;;;;;;;14.49;100.00;99799.78;5053193;28;20032;-83
2023/08/01 02:51:00;;;;;;;;;;;;;;;14.51;100.00;99800.56;5054765;28;20029;-83
2023/08/01 02:53:34;;;;;;;6.80;3.80;;;;;;;14.50;100.00;99798.84;5052612;28;20411;-83
2023/08/01 02:56:04;;;;;;;6.40;3.58;;;;;;;14.52;100.00;99800.47;5052833;28;20090;-83
2023/08/01 02:58:29;;;;;;;9.10;4.95;;;;;;;14.52;100.00;99799.63;5053095;28;20037;-83
2023/08/01 03:00:56;;;;;;;7.37;4.10;;;;;;;14.54;100.00;99797.78;5052467;28;20443;-82
2023/08/01 03:03:24;;;;;;;7.32;4.28;;;;;;;14.56;100.00;99798.53;5053365;28;20039;-83
2023/08/01 03:05:49;;;;;;;8.98;4.38;;;;;;;14.55;100.00;99793.41;5053489;28;20428;-83
2023/08/01 03:08:14;;;;;;;8.27;4.53;;;;;;;14.54;100.00;99789.94;5051502;28;20055;-83
2023/08/01 03:10:40;;;;;;;6.03;3.90;;;;;;;14.54;100.00;99787.31;5052750;28;20104;-82
2023/08/01 03:13:05;;;;;;;7.60;4.60;;;;;;;14.54;100.00;99776.06;5052465;28;20040;-82
2023/08/01 03:15:31;;;;;;;7.83;4.63;;;;;;;14.53;100.00;99790.84;5052636;28;20069;-82
2023/08/01 03:17:57;;;;;;;9.20;4.43;;;;;;;14.50;100.00;99791.84;5053312;28;20504;-82
2023/08/01 03:20:22;;;;;;;6.87;3.93;;;;;;;14.53;100.00;99788.25;5052881;28;20025;-82
2023/08/01 03:22:48;;;;;;;7.57;4.47;;;;;;;14.54;100.00;99784.72;5052103;28;20021;-82
2023/08/01 03:25:13;;;;;;;11.17;5.00;;;;;;;14.46;100.00;99771.19;5052635;28;20021;-82
2023/08/01 03:27:38;;;;;;;9.60;5.07;;;;;;;14.52;100.00;99795.25;5052959;28;20044;-82
2023/08/01 03:30:04;;;;;;;9.17;5.00;;;;;;;14.51;100.00;99790.94;5052308;28;20025;-82
2023/08/01 03:32:30;;;;;;;7.37;4.33;;;;;;;14.50;100.00;99791.84;5053542;28;20021;-82
2023/08/01 03:34:56;;;;;;;10.03;5.00;;;;;;;14.53;100.00;99793.47;5052725;28;20274;-82
2023/08/01 03:37:21;;;;;;;6.43;4.10;;;;;;;14.52;100.00;99795.25;5051981;28;20366;-82
2023/08/01 03:39:46;;;;;;;5.97;3.73;;;;;;;14.54;100.00;99789.09;5053021;28;20025;-83
2023/08/01 03:42:12;;;;;;;7.80;4.40;;;;;;;14.55;100.00;99796.03;5051425;28;20043;-83
2023/08/01 03:44:37;;;;;;;8.43;4.93;;;;;;;14.53;100.00;99793.47;5053468;28;20060;-82
2023/08/01 03:47:03;;;;;;;10.67;5.47;;;;;;;14.56;100.00;99792.50;5053195;28;20056;-82
2023/08/01 03:49:31;;;;;;;7.63;4.53;;;;;;;14.55;100.00;99796.84;5052442;28;20029;-82
2023/08/01 03:51:56;;;;;;;11.73;6.10;;;;;;;14.55;100.00;99796.84;5051812;28;20028;-83
2023/08/01 03:54:22;;;;;;;12.37;6.53;;;;;;;14.56;100.00;99795.09;5052277;28;20404;-82
2023/08/01 03:56:47;;;;;;;12.27;6.00;;;;;;;14.58;100.00;99801.09;5052655;28;20067;-82
2023/08/01 03:59:15;;;;;;;14.30;7.00;;;;;;;14.57;100.00;99802.03;5052175;28;20036;-82
2023/08/01 04:01:41;;;;;;;13.48;6.53;;;;;;;14.59;100.00;99808.84;5052933;28;20044;-82
2023/08/01 04:04:08;;;;;;;13.30;6.70;;;;;;;14.58;100.00;99804.53;5051542;28;20013;-83
2023/08/01 04:06:33;;;;;;;12.35;6.82;;;;;;;14.59;100.00;99800.16;5052472;28;20025;-82
2023/08/01 04:08:59;;;;;;;17.13;8.07;;;;;;;14.58;100.00;99798.50;5052888;28;20112;-83
2023/08/01 04:11:25;;;;;;;18.27;8.75;;;;;;;14.58;100.00;99794.09;5051453;28;20029;-82
2023/08/01 04:13:51;;;;;;;18.85;9.68;;;;;;;14.56;100.00;99788.09;5052372;28;20032;-82
2023/08/01 04:16:16;;;;;;;18.43;9.40;;;;;;;14.53;100.00;99796.06;5051660;28;20045;-83
2023/08/01 04:18:41;;;;;;;17.33;8.77;;;;;;;14.58;100.00;99803.72;5052321;28;20052;-82
2023/08/01 04:21:12;;;;;;;15.03;7.40;;;;;;;14.57;100.00;99794.19;5055951;28;20025;-83
2023/08/01 04:23:37;;;;;;;13.05;6.80;;;;;;;14.56;100.00;99789.88;5056609;28;20167;-82
2023/08/01 04:26:05;;;;;;;11.60;6.10;;;;;;;14.61;100.00;99798.31;5055700;28;20477;-83
2023/08/01 04:28:31;;;;;;;17.27;8.48;;;;;;;14.61;100.00;99796.56;5056345;28;20359;-82
2023/08/01 04:31:00;;;;;;;14.13;7.47;;;;;;;14.62;100.00;99795.66;5055561;28;20108;-82
2023/08/01 04:33:25;;;;;;;15.63;7.53;;;;;;;14.65;100.00;99794.66;5055300;28;20115;-82
2023/08/01 04:35:50;;;;;;;14.90;7.40;;;;;;;14.66;100.00;99789.34;5055712;28;20422;-83
2023/08/01 04:38:22;;;;;;;13.30;6.53;;;;;;;14.68;100.00;99794.53;5055614;28;20023;-81
2023/08/01 04:40:47;;;;;;;8.93;5.30;;;;;;;14.72;100.00;99798.66;5056742;28;20021;-81
2023/08/01 04:43:13;;;;;;;11.77;6.10;;;;;;;14.74;100.00;99801.22;5055332;28;20351;-82
2023/08/01 04:45:38;;;;;;;13.45;6.63;;;;;;;14.73;100.00;99802.16;5056236;28;20032;-82
2023/08/01 04:48:04;;;;;;;11.27;6.33;;;;;;;14.76;100.00;99805.44;5055376;28;20381;-81
2023/08/01 04:50:29;;;;;;;12.40;6.53;;;;;;;14.79;100.00;99807.91;5055571;28;20108;-81
2023/08/01 04:52:55;;;;;;;11.60;6.27;;;;;;;14.83;100.00;99812.03;5055665;28;20017;-81
2023/08/01 04:55:20;;;;;;;14.43;6.93;;;;;;;14.85;100.00;99822.44;5054904;28;20381;-81
2023/08/01 04:57:45;;;;;;;11.60;6.10;;;;;;;14.85;100.00;99830.28;5056202;28;20025;-81
2023/08/01 05:00:11;;;;;;;12.57;6.50;;;;;;;14.82;100.00;99828.63;5054887;28;20031;-80
2023/08/01 05:02:37;;;;;;;12.53;6.40;;;;;;;14.81;100.00;99826.09;5055914;28;20583;-81
2023/08/01 05:05:02;;;;;;;12.07;5.97;;;;;;;14.81;100.00;99823.50;5055859;28;20090;-81
2023/08/01 05:07:28;;;;;;;8.83;4.90;;;;;;;14.79;100.00;99820.97;5054527;28;20025;-82
2023/08/01 05:09:53;;;;;;;6.40;4.20;;;;;;;14.81;100.00;99818.28;5055183;28;20032;-81
2023/08/01 05:12:18;;;;;;;6.63;3.90;;;;;;;14.80;100.00;99813.97;5055150;28;20049;-81
2023/08/01 05:14:44;;;;;;;11.47;5.20;;;;;;;14.80;100.00;99825.28;5054847;28;20032;-82
2023/08/01 05:17:09;;;;;;;9.50;4.77;;;;;;;14.77;100.00;99824.56;5055380;28;20063;-81
2023/08/01 05:19:34;;;;;;;10.27;5.23;;;;;;;14.74;100.00;99827.34;5055009;28;20115;-80
2023/08/01 05:21:59;;;;;;;9.27;5.00;;;;;;;14.75;100.00;99827.25;5054404;28;20107;-81
2023/08/01 05:24:25;;;;;;;7.47;4.60;;;;;;;14.75;100.00;99822.03;5054805;28;20029;-81
2023/08/01 05:26:50;;;;;;;6.57;3.90;;;;;;;14.76;100.00;99822.84;5055384;28;20091;-81
2023/08/01 05:29:18;;;;;;;9.70;5.17;;;;;;;14.75;100.00;99811.59;5055187;28;20029;-82
2023/08/01 05:31:46;;;;;;;11.65;5.72;;;;;;;14.79;100.00;99818.34;5055264;28;20058;-81
2023/08/01 05:34:12;;;;;;;17.35;8.50;;;;;;;14.71;100.00;99824.88;5055061;28;20039;-81
2023/08/01 05:36:37;;;;;;;15.93;7.03;;;;;;;14.69;100.00;99824.97;5054647;28;20029;-81
2023/08/01 05:39:03;;;;;;;14.83;6.97;;;;;;;14.67;100.00;99829.41;5054436;28;20028;-81
2023/08/01 05:41:29;;;;;;;12.13;6.30;;;;;;;14.69;100.00;99827.56;5054586;28;20021;-82
2023/08/01 05:43:54;;;;;;;15.87;7.50;;;;;;;14.70;100.00;99834.44;5054326;28;20036;-83
2023/08/01 05:46:20;;;;;;;14.30;7.30;;;;;;;14.74;100.00;99837.78;5054406;28;20021;-82
2023/08/01 05:48:45;;;;;;;11.60;5.93;;;;;;;14.78;100.00;99832.34;5054903;28;20021;-84
2023/08/01 05:51:10;;;;;;;12.07;6.07;;;;;;;14.87;100.00;99824.97;5053659;28;20174;-82
2023/08/01 05:53:36;;;;;;;8.20;5.03;;;;;;;15.03;100.00;99832.88;5054523;28;20021;-85
2023/08/01 05:56:01;;;;;;;8.87;5.13;;;;;;;15.06;100.00;99827.50;5054353;28;20135;-84
2023/08/01 05:58:27;;;;;;;11.43;6.20;;;;;;;15.16;100.00;99841.78;5054018;28;20028;-84
2023/08/01 06:00:52;;;;;;;11.37;5.90;;;;;;;15.20;100.00;99845.94;5055268;28;20564;-83
2023/08/01 06:03:17;;;;;;;8.07;4.80;;;;;;;15.27;100.00;99839.47;5054250;28;20112;-84
2023/08/01 06:05:43;;;;;;;8.90;5.17;;;;;;;15.31;100.00;99853.22;5054823;28;20029;-84
2023/08/01 06:08:08;;;;;;;11.27;5.83;;;;;;;15.31;100.00;99841.94;5055189;28;20531;-84
2023/08/01 06:10:40;;;;;;;8.27;4.90;;;;;;;15.38;100.00;99840.69;5055384;28;20028;-84
2023/08/01 06:13:06;;;;;;;8.32;4.60;;;;;;;15.41;100.00;99840.56;5054950;28;20025;-85
2023/08/01 06:15:31;;;;;;;9.47;5.23;;;;;;;15.49;100.00;99854.06;5054468;28;20082;-85
2023/08/01 06:17:56;;;;;;;8.17;4.63;;;;;;;15.52;100.00;99853.91;5053973;28;20043;-85
2023/08/01 06:20:22;;;;;;;7.50;4.70;;;;;;;15.55;100.00;99856.34;5053522;28;20032;-84
2023/08/01 06:22:47;;;;;;;7.27;4.43;;;;;;;15.62;100.00;99858.66;5054334;28;20103;-84
2023/08/01 06:25:12;;;;;;;6.87;4.40;;;;;;;15.63;100.00;99862.97;5053467;28;20031;-85
2023/08/01 06:27:37;;;;;;;6.73;4.30;;;;;;;15.70;100.00;99867.81;5054135;28;20062;-84
2023/08/01 06:30:04;;;;;;;9.33;4.90;;;;;;;15.72;100.00;99857.25;5053225;28;20067;-85
2023/08/01 06:32:29;;;;;;;7.78;4.88;;;;;;;15.72;100.00;99854.63;5053329;28;20029;-83
2023/08/01 06:34:54;;;;;;;10.43;5.33;;;;;;;15.77;100.00;99857.84;5053589;28;20358;-82
2023/08/01 06:37:20;;;;;;;9.43;5.40;;;;;;;15.74;100.00;99860.63;5053162;28;20017;-83
2023/08/01 06:39:45;;;;;;;8.50;4.50;;;;;;;15.69;100.00;99858.25;5053186;28;20025;-84
2023/08/01 06:42:10;;;;;;;7.23;4.20;;;;;;;15.70;100.00;99867.81;5053083;28;20104;-82
2023/08/01 06:44:36;;;;;;;8.93;5.10;;;;;;;15.86;100.00;99852.19;5053622;28;20021;-90
2023/08/01 06:47:01;;;;;;;8.93;4.90;;;;;;;16.21;100.00;99862.50;5053322;28;20025;-83
2023/08/01 06:49:27;;;;;;;8.23;5.00;;;;;;;16.66;100.00;99861.81;5053035;28;20021;-83
2023/08/01 06:51:52;;;;;;;8.13;4.40;;;;;;;17.33;100.00;99872.00;5053219;28;20033;-83
2023/08/01 06:54:17;;;;;;;9.93;5.20;;;;;;;18.46;100.00;99882.66;5052416;28;20025;-83
2023/08/01 06:56:47;;;;;;;9.13;4.90;;;;;;;18.53;100.00;99876.06;5053724;28;20017;-83
2023/08/01 06:59:23;;;;;;;6.95;4.30;;;;;;;18.78;100.00;99879.75;5052901;28;20029;-83
2023/08/01 07:01:48;;;;;;;10.48;5.30;;;;;;;18.91;100.00;99880.63;5052796;28;20032;-83
2023/08/01 07:04:13;;;;;;;10.40;5.60;;;;;;;19.36;100.00;99882.13;5053188;28;20384;-83
2023/08/01 07:06:39;;;;;;;10.20;5.47;;;;;;;19.37;100.00;99889.03;5053128;28;20021;-83
2023/08/01 07:09:06;;;;;;;11.27;5.45;;;;;;;19.33;100.00;99891.03;5052612;28;20013;-83
2023/08/01 07:11:31;;;;;;;8.18;4.60;;;;;;;18.95;100.00;99891.81;5053169;28;20025;-83
2023/08/01 07:13:56;;;;;;;9.80;4.97;;;;;;;18.63;100.00;99886.84;5052669;28;20044;-83
2023/08/01 07:16:22;;;;;;;8.93;4.77;;;;;;;18.53;100.00;99886.59;5052528;28;20092;-83
2023/08/01 07:18:48;;;;;;;11.33;5.40;;;;;;;18.39;100.00;99883.97;5052696;28;20144;-88
2023/08/01 07:21:14;;;;;;;8.43;4.50;;;;;;;18.31;100.00;99890.56;5052583;28;20610;-87
2023/08/01 07:23:39;;;;;;;9.43;4.80;;;;;;;18.19;100.00;99880.84;5052502;28;20104;-84
2023/08/01 07:26:04;;;;;;;9.80;4.50;;;;;;;18.01;100.00;99883.66;5052440;28;20431;-84
2023/08/01 07:28:30;;;;;;;7.27;4.43;;;;;;;17.87;100.00;99879.22;5052344;28;20029;-84
2023/08/01 07:31:04;;;;;;;7.93;3.90;;;;;;;17.95;100.00;99883.19;5052284;28;20104;-85
2023/08/01 07:33:30;;;;;;;9.02;4.15;;;;;;;18.02;100.00;99880.09;5052531;28;20036;-84
2023/08/01 07:35:55;;;;;;;10.37;4.93;;;;;;;18.01;100.00;99888.06;5052268;28;20385;-85
2023/08/01 07:38:20;;;;;;;6.87;4.03;;;;;;;18.07;100.00;99885.06;5052450;28;20082;-84
2023/08/01 07:40:46;;;;;;;7.90;4.00;;;;;;;18.12;100.00;99877.75;5052871;28;20028;-85
2023/08/01 07:43:12;;;;;;;8.43;4.13;;;;;;;18.05;100.00;99893.03;5052124;28;20048;-84
2023/08/01 07:45:38;;;;;;;7.20;3.50;;;;;;;17.89;100.00;99900.97;5052986;28;20029;-85
2023/08/01 07:48:03;;;;;;;7.63;3.80;;;;;;;17.67;100.00;99892.72;5052317;28;20374;-84
2023/08/01 07:50:29;;;;;;;10.17;4.30;;;;;;;17.51;100.00;99891.00;5051751;28;20024;-85
2023/08/01 07:52:54;;;;;;;6.90;3.50;;;;;;;17.40;100.00;99893.41;5054464;28;20021;-84
2023/08/01 07:55:20;;;;;;;4.83;3.13;;;;;;;17.35;100.00;99885.81;5058855;28;20024;-84
2023/08/01 07:57:46;;;;;;;3.95;2.90;;;;;;;17.38;100.00;99893.53;5058637;28;20025;-84
2023/08/01 08:00:12;;;;;;;6.63;3.10;;;;;;;17.55;100.00;99895.16;5059142;28;20366;-84
2023/08/01 08:02:37;;;;;;;6.50;3.47;;;;;;;17.67;100.00;99885.72;5059052;28;20044;-85
2023/08/01 08:05:02;;;;;;;5.93;3.10;;;;;;;17.84;100.00;99894.31;5058941;28;20029;-85
2023/08/01 08:07:28;;;;;;;7.70;3.57;;;;;;;17.97;100.00;99887.44;5059051;28;20532;-86
2023/08/01 08:09:54;;;;;;;5.20;3.20;;;;;;;18.01;100.00;99894.16;5058925;28;20468;-85
2023/08/01 08:12:21;;;;;;;7.22;3.55;;;;;;;17.91;100.00;99890.38;5058192;28;20068;-86
2023/08/01 08:14:46;;;;;;;5.22;3.10;;;;;;;17.78;99.88;99907.84;5058569;28;20028;-85
2023/08/01 08:17:12;;;;;;;7.78;3.35;;;;;;;17.65;100.00;99908.56;5058383;28;20032;-85
2023/08/01 08:19:37;;;;;;;6.33;3.10;;;;;;;17.67;100.00;99904.09;5059460;28;20382;-85
2023/08/01 08:22:03;;;;;;;5.47;2.97;;;;;;;17.82;100.00;99902.31;5058609;28;20488;-84
2023/08/01 08:24:28;;;;;;;9.83;3.20;;;;;;;17.95;97.89;99905.00;5058700;28;20021;-85
2023/08/01 08:26:53;;;;;;;6.67;3.30;;;;;;;17.98;99.23;99910.13;5059006;28;20025;-84
2023/08/01 08:29:19;;;;;;;7.80;3.63;;;;;;;18.02;99.38;99916.84;5058062;28;20029;-85
2023/08/01 08:31:47;;;;;;;4.97;2.90;;;;;;;18.18;100.00;99911.50;5058554;28;20021;-85
2023/08/01 08:34:13;;;;;;;4.93;2.70;;;;;;;18.46;100.00;99898.44;5058950;28;20025;-86
2023/08/01 08:36:38;;;;;;;5.63;3.13;;;;;;;18.48;98.79;99917.53;5059135;28;20040;-85
2023/08/01 08:39:04;;;;;;;7.97;3.20;;;;;;;18.42;99.35;99923.19;5058371;28;20044;-85
2023/08/01 08:41:35;;;;;;;6.07;2.97;;;;;;;18.33;98.68;99924.63;5058984;28;20488;-85
2023/08/01 08:44:06;;;;;;;3.72;2.80;;;;;;;18.06;99.81;99926.22;5058103;28;20021;-84
2023/08/01 08:46:39;;;;;;;3.85;2.80;;;;;;;17.85;100.00;99927.50;5058145;28;20029;-86
2023/08/01 08:49:05;;;;;;;5.63;2.60;;;;;;;17.65;100.00;99931.31;5058444;28;20033;-83
2023/08/01 08:51:31;;;;;;;3.67;2.60;;;;;;;17.48;100.00;99942.81;5058501;28;20028;-86
2023/08/01 08:53:57;;;;;;;3.75;2.40;;;;;;;17.34;100.00;99938.38;5058653;28;20418;-84
2023/08/01 08:56:23;;;;;;;3.70;2.40;;;;;;;17.26;100.00;99930.94;5058766;28;20117;-83
2023/08/01 08:58:49;;;;;;;2.97;2.20;;;;;;;17.17;100.00;99939.34;5058597;28;20017;-84
2023/08/01 09:01:17;;;;;;;5.95;2.42;;;;;;;17.07;100.00;99931.16;5044028;28;20159;-83
2023/08/01 09:03:43;;;;;;;3.00;2.10;;;;;;;16.95;100.00;99935.34;5024238;28;20045;-85
2023/08/01 09:06:16;;;;;;;2.13;1.92;;;;;;;16.87;100.00;99925.25;5053886;28;20466;-85
2023/08/01 09:08:50;;;;;;;2.35;1.80;;;;;;;16.91;100.00;99923.28;5054410;28;20556;-84
2023/08/01 09:11:18;;;;;;;1.70;1.60;;;;;;;17.01;100.00;99934.16;5055444;28;20025;-84
2023/08/01 09:13:43;;;;;;;1.90;1.70;;;;;;;17.04;100.00;99942.69;5054866;28;20031;-85
2023/08/01 09:16:12;;;;;;;1.57;1.47;;;;;;;17.13;100.00;99929.03;5054260;28;20120;-85
2023/08/01 09:18:51;;;;;;;2.33;1.80;;;;;;;17.26;100.00;99930.94;5054117;28;20024;-85
2023/08/01 09:21:20;;;;;;;3.40;1.85;;;;;;;17.34;100.00;99941.84;5054268;28;20028;-85
2023/08/01 09:23:46;;;;;;;3.42;2.20;;;;;;;17.42;100.00;99949.25;5055020;28;20389;-85
2023/08/01 09:26:13;;;;;;;2.97;2.05;;;;;;;17.49;100.00;99945.38;5054769;28;20033;-85
2023/08/01 09:28:39;;;;;;;3.35;2.30;;;;;;;17.55;100.00;99944.16;5054839;28;20067;-85
2023/08/01 09:31:04;;;;;;;3.60;2.10;;;;;;;17.56;100.00;99943.22;5054625;28;20068;-85
2023/08/01 09:33:41;;;;;;;2.43;2.00;;;;;;;17.55;100.00;99950.25;5054246;28;20048;-84
2023/08/01 09:36:07;;;;;;;3.55;1.95;;;;;;;17.51;100.00;99953.97;5054091;28;20033;-84
2023/08/01 09:38:37;;;;;;;3.83;2.22;;;;;;;17.46;100.00;99945.53;5053937;28;20755;-84
2023/08/01 09:41:05;;;;;;;6.22;2.70;;;;;;;17.32;100.00;99958.59;5054403;28;20029;-84
2023/08/01 09:43:38;;;;;;;5.40;2.58;;;;;;;17.25;100.00;99964.22;5053627;28;20048;-84
2023/08/01 09:46:06;;;;;;;3.42;2.20;;;;;;;17.23;100.00;99958.19;5054077;28;20424;-84
2023/08/01 09:48:31;;;;;;;2.47;2.15;;;;;;;17.09;100.00;99951.13;5054055;28;20132;-84
2023/08/01 09:51:11;;;;;;;3.73;2.20;;;;;;;17.04;100.00;99963.66;5054381;28;20036;-84
2023/08/01 09:53:56;;;;;;;4.18;2.20;;;;;;;17.01;100.00;99970.84;5054673;28;20456;-85
2023/08/01 09:56:24;;;;;;;2.13;1.90;;;;;;;16.96;100.00;99964.06;5053366;28;20475;-84
2023/08/01 09:58:51;;;;;;;3.13;1.88;;;;;;;16.88;100.00;99981.16;5054276;28;20458;-84
2023/08/01 10:01:19;;;;;;;2.45;1.85;;;;;;;16.78;100.00;99968.53;5053246;28;20059;-84
2023/08/01 10:03:49;;;;;;;1.48;1.38;;;;;;;16.76;100.00;99980.88;5053036;28;20052;-84
2023/08/01 10:06:23;;;;;;;1.90;1.50;;;;;;;16.83;100.00;99978.78;5053161;28;20017;-83
2023/08/01 10:08:50;;;;;;;2.40;1.88;;;;;;;16.96;100.00;99977.16;5054081;28;20029;-84
2023/08/01 10:11:18;;;;;;;2.20;1.75;;;;;;;17.14;100.00;99970.06;5053506;28;20028;-84
2023/08/01 10:13:44;;;;;;;1.50;1.40;;;;;;;17.38;100.00;99972.22;5054125;28;20029;-83
2023/08/01 10:16:14;;;;;;;2.30;1.70;;;;;;;17.63;100.00;99967.28;5052909;28;20083;-84
2023/08/01 10:18:40;;;;;;;1.77;1.35;;;;;;;17.95;100.00;99980.31;5053545;28;20094;-84
2023/08/01 10:21:13;;;;;;;1.27;1.23;;;;;;;18.23;100.00;99974.25;5053746;28;20465;-84
2023/08/01 10:23:40;;;;;;;1.98;1.60;;;;;;;18.45;100.00;99981.66;5054103;28;20428;-83
2023/08/01 10:26:08;;;;;;;2.67;2.03;;;;;;;18.37;100.00;99976.84;5053707;28;20083;-84
2023/08/01 10:28:36;;;;;;;1.92;1.73;;;;;;;18.36;100.00;99988.31;5053493;28;20060;-83
2023/08/01 10:31:11;;;;;;;2.45;1.83;;;;;;;18.29;100.00;99986.16;5053397;28;20033;-84
2023/08/01 10:34:04;;;;;;;3.45;1.90;;;;;;;18.28;100.00;99992.34;5054128;28;20029;-83
2023/08/01 10:36:31;;;;;;;2.13;1.90;;;;;;;18.20;100.00;99992.81;5043705;28;20041;-83
2023/08/01 10:38:58;;;;;;;3.13;1.90;;;;;;;18.15;100.00;99985.22;5053644;28;20429;-84
2023/08/01 10:41:28;;;;;;;;;;;;;;;18.15;100.00;99984.38;5053819;28;20029;-83
2023/08/01 10:44:13;;;;;;;1.63;1.48;;;;;;;18.17;100.00;99983.34;5053799;28;19912;-84
2023/08/01 10:46:58;;;;;;;1.40;1.30;;;;;;;18.26;100.00;99981.94;5053635;28;20025;-83
2023/08/01 10:49:37;;;;;;;3.40;1.80;;;;;;;18.45;100.00;99986.06;5053124;28;20016;-84
2023/08/01 10:52:03;;;;;;;5.55;2.20;;;;;;;18.67;100.00;99983.78;5052538;28;20040;-84
2023/08/01 10:54:29;;;;;;;2.97;1.88;;;;;;;18.89;100.00;99986.81;5053407;28;20020;-83
2023/08/01 10:57:01;;;;;;;2.90;2.03;;;;;;;19.05;100.00;99981.44;5053443;28;20027;-83
2023/08/01 10:59:27;;;;;;;3.75;2.20;;;;;;;19.04;100.00;100000.78;5053026;28;20052;-83
2023/08/01 11:01:53;;;;;;;3.80;2.10;;;;;;;18.85;99.75;99988.81;5053161;28;20469;-83
2023/08/01 11:04:20;;;;;;;;;;;;;;;18.80;98.28;99996.16;5053324;28;20488;-84
2023/08/01 11:06:51;;;;;;;3.90;2.20;;;;;;;18.82;100.00;99996.88;5053195;28;19967;-83
2023/08/01 11:09:18;;;;;;;3.70;2.20;;;;;;;19.01;100.00;100001.84;5052935;28;20029;-84
2023/08/01 11:11:44;;;;;;;2.45;1.85;;;;;;;19.11;100.00;100002.94;5052811;28;20040;-83
2023/08/01 11:14:11;;;;;;;2.72;1.80;;;;;;;19.11;100.00;100004.72;5052336;28;20022;-84
2023/08/01 11:16:37;;;;;;;2.45;1.80;;;;;;;19.04;98.60;100004.28;5052671;28;20493;-83
2023/08/01 11:19:02;;;;;;;2.38;1.80;;;;;;;18.93;98.15;100006.72;5052754;28;20040;-84
2023/08/01 11:21:28;;;;;;;2.27;1.60;;;;;;;18.82;97.51;100002.13;5053064;28;20021;-82